createdAt,value
2023-03-19T00:00:32.470Z,5.70
2023-03-19T00:02:59.156Z,6.20
2023-03-19T00:05:25.932Z,5.80
2023-03-19T00:07:52.403Z,6.20
2023-03-19T00:10:18.938Z,6.97
2023-03-19T00:12:45.650Z,7.17
2023-03-19T00:15:14.737Z,6.90
2023-03-19T00:17:44.349Z,6.83
2023-03-19T00:20:12.743Z,7.60
2023-03-19T00:22:40.281Z,7.83
2023-03-19T00:25:10.070Z,7.37
2023-03-19T00:27:37.962Z,8.40
2023-03-19T00:30:07.476Z,8.97
2023-03-19T00:32:35.342Z,10.53
2023-03-19T00:35:01.885Z,8.50
2023-03-19T00:37:28.421Z,8.10
2023-03-19T00:39:56.339Z,7.80
2023-03-19T00:42:22.829Z,10.70
2023-03-19T00:44:49.382Z,10.03
2023-03-19T00:47:15.797Z,9.40
2023-03-19T00:49:42.319Z,8.63
2023-03-19T00:52:08.919Z,8.50
2023-03-19T00:54:35.654Z,8.97
2023-03-19T00:57:02.258Z,7.57
2023-03-19T00:59:28.793Z,6.80
2023-03-19T01:01:55.878Z,7.43
2023-03-19T01:04:23.184Z,10.30
2023-03-19T01:06:49.931Z,9.30
2023-03-19T01:09:16.918Z,8.93
2023-03-19T01:11:43.620Z,8.77
2023-03-19T01:14:10.184Z,8.50
2023-03-19T01:16:36.814Z,7.90
2023-03-19T01:19:04.102Z,8.60
2023-03-19T01:21:31.088Z,9.17
2023-03-19T01:23:58.280Z,7.67
2023-03-19T01:26:26.173Z,7.30
2023-03-19T01:28:58.268Z,7.63
2023-03-19T01:31:26.086Z,7.43
2023-03-19T01:33:52.682Z,7.53
2023-03-19T01:36:31.473Z,8.27
2023-03-19T01:39:02.689Z,8.63
2023-03-19T01:41:29.379Z,8.13
2023-03-19T01:44:28.093Z,7.93
2023-03-19T01:47:41.109Z,8.97
2023-03-19T01:50:23.774Z,8.03
2023-03-19T01:52:55.373Z,8.70
2023-03-19T01:55:27.862Z,8.53
2023-03-19T01:58:09.980Z,8.13
2023-03-19T02:01:05.299Z,9.37
2023-03-19T02:03:33.776Z,8.37
2023-03-19T02:06:15.842Z,8.47
2023-03-19T02:08:43.103Z,7.97
2023-03-19T02:11:10.571Z,7.60
2023-03-19T02:13:37.578Z,7.80
2023-03-19T02:16:04.378Z,7.50
2023-03-19T02:18:31.562Z,7.63
2023-03-19T02:21:17.431Z,7.27
2023-03-19T02:23:53.731Z,7.10
2023-03-19T02:26:31.253Z,7.10
2023-03-19T02:29:04.008Z,7.30
2023-03-19T02:31:33.910Z,6.70
2023-03-19T02:34:03.465Z,6.90
2023-03-19T02:36:40.483Z,6.50
2023-03-19T02:39:16.876Z,6.40
2023-03-19T02:41:44.437Z,6.60
2023-03-19T02:44:12.303Z,7.00
2023-03-19T02:46:38.963Z,7.30
2023-03-19T02:49:05.511Z,7.10
2023-03-19T02:51:32.019Z,6.70
2023-03-19T02:54:00.795Z,7.40
2023-03-19T02:56:27.217Z,6.80
2023-03-19T02:58:53.746Z,7.23
2023-03-19T03:01:20.913Z,7.40
2023-03-19T03:03:47.462Z,6.60
2023-03-19T03:06:14.480Z,6.57
2023-03-19T03:08:41.291Z,7.13
2023-03-19T03:11:08.759Z,6.70
2023-03-19T03:13:35.907Z,6.80
2023-03-19T03:16:02.456Z,7.07
2023-03-19T03:18:28.944Z,6.87
2023-03-19T03:20:55.707Z,7.13
2023-03-19T03:23:22.328Z,7.50
2023-03-19T03:25:51.261Z,6.60
2023-03-19T03:28:18.991Z,7.27
2023-03-19T03:30:46.401Z,6.57
2023-03-19T03:33:13.485Z,6.57
2023-03-19T03:35:40.477Z,6.70
2023-03-19T03:38:06.996Z,6.87
2023-03-19T03:40:34.407Z,7.00
2023-03-19T03:43:01.285Z,6.90
2023-03-19T03:45:28.464Z,7.30
2023-03-19T03:47:55.019Z,7.40
2023-03-19T03:50:21.654Z,6.50
2023-03-19T03:52:51.537Z,6.83
2023-03-19T03:55:18.060Z,7.63
2023-03-19T03:57:44.687Z,7.33
2023-03-19T04:00:12.644Z,7.90
2023-03-19T04:02:43.652Z,10.07
2023-03-19T04:05:14.536Z,16.87
2023-03-19T04:07:41.357Z,16.63
2023-03-19T04:10:09.416Z,14.63
2023-03-19T04:12:37.851Z,16.43
2023-03-19T04:15:05.559Z,28.23
2023-03-19T04:17:32.104Z,26.17
2023-03-19T04:19:58.530Z,22.83
2023-03-19T04:22:25.643Z,15.43
2023-03-19T04:24:52.345Z,11.80
2023-03-19T04:27:18.810Z,8.93
2023-03-19T04:29:45.653Z,8.13
2023-03-19T04:32:13.530Z,8.27
2023-03-19T04:34:41.639Z,7.80
2023-03-19T04:37:10.356Z,7.20
2023-03-19T04:39:44.597Z,7.17
2023-03-19T04:42:11.681Z,8.00
2023-03-19T04:44:48.605Z,8.10
2023-03-19T04:47:16.486Z,8.10
2023-03-19T04:49:53.352Z,7.40
2023-03-19T04:52:20.772Z,8.27
2023-03-19T04:54:48.763Z,9.60
2023-03-19T04:57:15.871Z,8.50
2023-03-19T04:59:44.243Z,8.80
2023-03-19T05:02:13.528Z,8.07
2023-03-19T05:04:41.733Z,8.13
2023-03-19T05:07:12.059Z,8.17
2023-03-19T05:09:40.512Z,8.73
2023-03-19T05:12:07.051Z,12.57
2023-03-19T05:14:40.038Z,13.70
2023-03-19T05:17:32.617Z,16.17
2023-03-19T05:20:08.186Z,11.40
2023-03-19T05:22:35.660Z,8.90
2023-03-19T05:25:02.619Z,8.70
2023-03-19T05:27:30.323Z,7.93
2023-03-19T05:30:05.630Z,7.40
2023-03-19T05:32:59.668Z,8.57
2023-03-19T05:35:36.915Z,9.30
2023-03-19T05:38:08.244Z,10.30
2023-03-19T05:40:36.201Z,10.17
2023-03-19T05:43:14.789Z,10.13
2023-03-19T05:45:42.521Z,9.80
2023-03-19T05:48:18.744Z,9.60
2023-03-19T05:50:45.332Z,9.70
2023-03-19T05:53:19.686Z,9.13
2023-03-19T05:56:02.479Z,8.20
2023-03-19T05:58:32.624Z,8.60
2023-03-19T06:00:59.682Z,10.63
2023-03-19T06:03:27.125Z,9.13
2023-03-19T06:05:54.561Z,11.00
2023-03-19T06:08:34.845Z,10.40
2023-03-19T06:11:24.012Z,9.70
2023-03-19T06:14:04.627Z,8.73
2023-03-19T06:16:37.422Z,8.70
2023-03-19T06:19:04.130Z,8.13
2023-03-19T06:21:31.444Z,7.97
2023-03-19T06:24:01.391Z,7.60
2023-03-19T06:26:32.796Z,7.00
2023-03-19T06:29:01.658Z,8.37
2023-03-19T06:31:28.282Z,8.33
2023-03-19T06:34:18.246Z,7.50
2023-03-19T06:36:45.020Z,8.73
2023-03-19T06:39:13.640Z,8.07
2023-03-19T06:41:40.463Z,7.90
2023-03-19T06:44:13.999Z,7.60
2023-03-19T06:46:40.811Z,8.17
2023-03-19T06:49:07.934Z,7.63
2023-03-19T06:51:34.388Z,7.60
2023-03-19T06:54:00.916Z,7.77
2023-03-19T06:56:27.536Z,8.17
2023-03-19T06:58:53.966Z,8.10
2023-03-19T07:01:21.689Z,7.27
2023-03-19T07:03:48.175Z,7.93
2023-03-19T07:06:14.752Z,7.67
2023-03-19T07:08:46.020Z,8.47
2023-03-19T07:11:13.713Z,8.30
2023-03-19T07:13:40.889Z,8.20
2023-03-19T07:16:07.991Z,7.47
2023-03-19T07:18:34.745Z,7.27
2023-03-19T07:21:01.390Z,7.40
2023-03-19T07:23:27.842Z,7.07
2023-03-19T07:25:54.304Z,7.80
2023-03-19T07:28:20.814Z,7.63
2023-03-19T07:30:47.232Z,7.47
2023-03-19T07:33:13.987Z,7.47
2023-03-19T07:35:40.882Z,11.40
2023-03-19T07:38:07.276Z,10.50
2023-03-19T07:40:33.943Z,8.87
2023-03-19T07:43:00.564Z,8.20
2023-03-19T07:45:27.890Z,6.77
2023-03-19T07:47:54.274Z,7.20
2023-03-19T07:50:21.709Z,7.63
2023-03-19T07:52:51.155Z,7.50
2023-03-19T07:55:17.976Z,6.30
2023-03-19T07:57:44.451Z,6.57
2023-03-19T08:00:12.089Z,7.20
2023-03-19T08:02:44.597Z,7.10
2023-03-19T08:05:11.268Z,7.63
2023-03-19T08:07:37.988Z,9.57
2023-03-19T08:10:05.264Z,9.03
2023-03-19T08:12:32.573Z,8.90
2023-03-19T08:14:59.107Z,8.23
2023-03-19T08:17:25.846Z,7.53
2023-03-19T08:19:52.285Z,7.33
2023-03-19T08:22:18.712Z,8.63
2023-03-19T08:24:45.143Z,7.83
2023-03-19T08:27:11.847Z,8.20
2023-03-19T08:29:39.096Z,8.00
2023-03-19T08:32:06.047Z,7.27
2023-03-19T08:34:33.024Z,6.93
2023-03-19T08:36:59.457Z,7.17
2023-03-19T08:39:25.919Z,6.53
2023-03-19T08:41:52.337Z,6.07
2023-03-19T08:44:18.751Z,5.70
2023-03-19T08:46:45.808Z,5.77
2023-03-19T08:49:12.413Z,5.07
2023-03-19T08:51:39.679Z,5.60
2023-03-19T08:54:06.333Z,5.10
2023-03-19T08:56:32.747Z,5.03
2023-03-19T08:58:59.129Z,4.60
2023-03-19T09:01:25.761Z,5.03
2023-03-19T09:03:52.464Z,5.43
2023-03-19T09:06:18.863Z,4.97
2023-03-19T09:08:45.355Z,6.17
2023-03-19T09:11:14.753Z,5.30
2023-03-19T09:13:41.727Z,4.50
2023-03-19T09:16:08.564Z,4.67
2023-03-19T09:18:35.695Z,4.20
2023-03-19T09:21:03.717Z,7.67
2023-03-19T09:23:30.226Z,4.00
2023-03-19T09:25:56.855Z,4.20
2023-03-19T09:28:23.253Z,5.37
2023-03-19T09:30:51.298Z,4.27
2023-03-19T09:33:19.954Z,5.27
2023-03-19T09:35:52.450Z,4.60
2023-03-19T09:38:20.590Z,3.30
2023-03-19T09:40:52.403Z,3.70
2023-03-19T09:43:40.840Z,3.70
2023-03-19T09:46:22.709Z,3.47
2023-03-19T09:49:14.729Z,3.80
2023-03-19T09:51:53.581Z,3.60
2023-03-19T09:54:27.305Z,3.00
2023-03-19T09:56:54.519Z,2.83
2023-03-19T09:59:23.555Z,2.60
2023-03-19T10:02:09.562Z,2.40
2023-03-19T10:04:45.849Z,2.90
2023-03-19T10:07:40.684Z,2.80
2023-03-19T10:10:32.600Z,3.30
2023-03-19T10:13:13.958Z,2.97
2023-03-19T10:15:44.610Z,3.20
2023-03-19T10:18:27.050Z,3.63
2023-03-19T10:20:59.895Z,3.67
2023-03-19T10:23:37.482Z,4.03
2023-03-19T10:26:07.229Z,3.47
2023-03-19T10:28:33.778Z,3.63
2023-03-19T10:31:19.018Z,3.57
2023-03-19T10:33:57.350Z,3.67
2023-03-19T10:36:30.716Z,3.30
2023-03-19T10:38:57.323Z,3.60
2023-03-19T10:41:35.658Z,3.50
2023-03-19T10:44:06.848Z,3.63
2023-03-19T10:46:40.673Z,3.47
2023-03-19T10:49:14.893Z,3.47
2023-03-19T10:51:46.108Z,3.30
2023-03-19T10:54:30.869Z,3.20
2023-03-19T10:56:59.313Z,3.37
2023-03-19T10:59:38.405Z,3.23
2023-03-19T11:02:23.532Z,3.30
2023-03-19T11:05:07.965Z,3.53
2023-03-19T11:07:36.333Z,4.10
2023-03-19T11:10:02.781Z,3.10
2023-03-19T11:12:34.598Z,3.27
2023-03-19T11:15:07.241Z,3.20
2023-03-19T11:17:48.361Z,2.90
2023-03-19T11:20:33.400Z,3.10
2023-03-19T11:23:03.166Z,2.90
2023-03-19T11:25:36.851Z,3.10
2023-03-19T11:28:21.031Z,3.40
2023-03-19T11:31:03.265Z,3.90
2023-03-19T11:33:48.447Z,3.57
2023-03-19T11:36:39.666Z,3.40
2023-03-19T11:39:32.332Z,3.63
2023-03-19T11:42:42.589Z,3.13
2023-03-19T11:45:27.009Z,3.30
2023-03-19T11:48:17.152Z,3.20
2023-03-19T11:51:13.136Z,3.20
2023-03-19T11:53:52.094Z,2.93
2023-03-19T11:56:33.029Z,3.40
2023-03-19T11:59:16.457Z,2.80
2023-03-19T12:02:21.758Z,2.97
2023-03-19T12:05:17.602Z,3.10
2023-03-19T12:08:07.594Z,3.43
2023-03-19T12:10:42.734Z,3.53
2023-03-19T12:13:36.592Z,3.00
2023-03-19T12:16:16.170Z,2.93
2023-03-19T12:19:14.949Z,3.17
2023-03-19T12:22:09.255Z,3.60
2023-03-19T12:24:45.734Z,3.53
2023-03-19T12:27:35.328Z,3.50
2023-03-19T12:30:26.567Z,3.23
2023-03-19T12:33:10.854Z,3.93
2023-03-19T12:35:40.152Z,4.13
2023-03-19T12:38:24.072Z,4.33
2023-03-19T12:41:05.240Z,4.17
2023-03-19T12:43:51.244Z,4.50
2023-03-19T12:46:25.448Z,4.60
2023-03-19T12:48:57.398Z,4.43
2023-03-19T12:51:34.342Z,5.17
2023-03-19T12:54:11.429Z,5.57
2023-03-19T12:56:56.990Z,6.00
2023-03-19T12:59:33.436Z,8.30
2023-03-19T13:02:12.956Z,6.60
2023-03-19T13:04:48.786Z,7.17
2023-03-19T13:07:22.508Z,7.03
2023-03-19T13:10:19.574Z,7.00
2023-03-19T13:12:48.659Z,6.73
2023-03-19T13:15:25.683Z,7.10
2023-03-19T13:17:58.680Z,6.67
2023-03-19T13:20:56.217Z,7.20
2023-03-19T13:23:29.927Z,6.27
2023-03-19T13:25:58.899Z,6.70
2023-03-19T13:28:37.406Z,6.60
2023-03-19T13:31:06.977Z,6.10
2023-03-19T13:33:35.144Z,6.07
2023-03-19T13:36:05.238Z,6.30
2023-03-19T13:38:40.636Z,6.57
2023-03-19T13:41:32.733Z,6.27
2023-03-19T13:44:00.656Z,5.50
2023-03-19T13:46:35.452Z,5.77
2023-03-19T13:49:28.782Z,5.60
2023-03-19T13:52:01.968Z,5.83
2023-03-19T13:54:37.508Z,6.03
2023-03-19T13:57:06.948Z,5.60
2023-03-19T13:59:38.950Z,5.67
2023-03-19T14:02:27.000Z,4.60
2023-03-19T14:05:17.007Z,4.93
2023-03-19T14:07:50.340Z,5.00
2023-03-19T14:10:20.368Z,5.20
2023-03-19T14:12:47.652Z,5.10
2023-03-19T14:15:23.419Z,5.57
2023-03-19T14:18:02.620Z,5.63
2023-03-19T14:20:40.585Z,5.80
2023-03-19T14:23:13.018Z,6.00
2023-03-19T14:26:17.582Z,5.63
2023-03-19T14:29:05.852Z,5.33
2023-03-19T14:31:58.059Z,5.57
2023-03-19T14:34:34.341Z,5.83
2023-03-19T14:37:04.171Z,5.17
2023-03-19T14:39:40.908Z,5.50
2023-03-19T14:42:25.868Z,4.83
2023-03-19T14:45:04.175Z,5.40
2023-03-19T14:47:49.077Z,5.17
2023-03-19T14:50:29.475Z,5.20
2023-03-19T14:53:03.180Z,4.97
2023-03-19T14:55:36.107Z,4.97
2023-03-19T14:58:03.350Z,5.40
2023-03-19T15:00:41.859Z,5.33
2023-03-19T15:03:20.132Z,4.90
2023-03-19T15:05:50.749Z,5.23
2023-03-19T15:08:26.412Z,5.03
2023-03-19T15:11:18.339Z,5.30
2023-03-19T15:13:49.592Z,4.90
2023-03-19T15:16:37.256Z,5.57
2023-03-19T15:19:03.804Z,5.30
2023-03-19T15:21:31.351Z,5.03
2023-03-19T15:23:58.173Z,5.20
2023-03-19T15:26:36.238Z,5.23
2023-03-19T15:29:04.419Z,5.57
2023-03-19T15:31:52.753Z,5.57
2023-03-19T15:34:28.996Z,6.00
2023-03-19T15:37:02.479Z,5.20
2023-03-19T15:39:32.845Z,5.70
2023-03-19T15:42:01.605Z,5.90
2023-03-19T15:44:42.870Z,5.63
2023-03-19T15:47:14.224Z,5.33
2023-03-19T15:49:50.683Z,5.43
2023-03-19T15:52:19.873Z,6.10
2023-03-19T15:54:46.791Z,5.70
2023-03-19T15:57:16.146Z,5.40
2023-03-19T15:59:43.621Z,7.47
2023-03-19T16:02:39.908Z,9.27
2023-03-19T16:05:21.334Z,9.50
2023-03-19T16:07:59.746Z,9.33
2023-03-19T16:10:28.890Z,9.70
2023-03-19T16:12:55.933Z,8.87
2023-03-19T16:15:25.804Z,10.20
2023-03-19T16:17:52.339Z,11.10
2023-03-19T16:20:19.054Z,10.13
2023-03-19T16:22:55.520Z,10.37
2023-03-19T16:25:30.044Z,10.73
2023-03-19T16:27:56.740Z,11.47
2023-03-19T16:30:26.385Z,10.97
2023-03-19T16:33:00.918Z,11.17
2023-03-19T16:35:29.962Z,12.77
2023-03-19T16:38:12.605Z,11.90
2023-03-19T16:40:42.696Z,11.37
2023-03-19T16:43:36.609Z,10.73
2023-03-19T16:46:06.821Z,11.03
2023-03-19T16:48:33.909Z,12.23
2023-03-19T16:51:00.442Z,11.23
2023-03-19T16:53:30.782Z,11.50
2023-03-19T16:55:58.839Z,10.70
2023-03-19T16:58:36.285Z,11.57
2023-03-19T17:01:05.638Z,11.70
2023-03-19T17:03:32.052Z,11.33
2023-03-19T17:05:59.110Z,11.83
2023-03-19T17:08:26.254Z,11.83
2023-03-19T17:10:54.325Z,12.63
2023-03-19T17:13:28.079Z,12.73
2023-03-19T17:15:57.180Z,12.20
2023-03-19T17:18:26.653Z,14.47
2023-03-19T17:20:58.608Z,12.63
2023-03-19T17:23:26.913Z,12.70
2023-03-19T17:25:54.425Z,11.93
2023-03-19T17:28:20.982Z,14.43
2023-03-19T17:30:47.641Z,14.53
2023-03-19T17:33:26.357Z,14.23
2023-03-19T17:35:54.254Z,14.80
2023-03-19T17:38:22.462Z,13.50
2023-03-19T17:40:49.142Z,13.73
2023-03-19T17:43:15.961Z,13.30
2023-03-19T17:45:46.626Z,12.97
2023-03-19T17:48:21.822Z,14.87
2023-03-19T17:50:49.682Z,17.50
2023-03-19T17:53:18.484Z,16.33
2023-03-19T17:55:46.319Z,14.83
2023-03-19T17:58:18.785Z,15.27
2023-03-19T18:00:47.415Z,14.43
2023-03-19T18:03:21.055Z,14.63
2023-03-19T18:05:47.777Z,14.40
2023-03-19T18:08:16.746Z,14.17
2023-03-19T18:10:43.411Z,15.53
2023-03-19T18:13:10.341Z,15.50
2023-03-19T18:15:38.731Z,17.10
2023-03-19T18:18:07.818Z,15.93
2023-03-19T18:20:38.528Z,15.77
2023-03-19T18:23:06.294Z,15.27
2023-03-19T18:25:35.251Z,17.07
2023-03-19T18:28:03.771Z,15.90
2023-03-19T18:30:33.199Z,15.37
2023-03-19T18:33:04.171Z,15.47
2023-03-19T18:35:34.835Z,20.80
2023-03-19T18:38:01.815Z,19.83
2023-03-19T18:40:32.666Z,18.83
2023-03-19T18:42:59.426Z,19.27
2023-03-19T18:45:30.433Z,18.43
2023-03-19T18:47:57.254Z,19.83
2023-03-19T18:50:29.133Z,20.93
2023-03-19T18:52:56.665Z,24.83
2023-03-19T18:55:30.650Z,21.30
2023-03-19T18:58:02.183Z,21.17
2023-03-19T19:00:32.422Z,18.43
2023-03-19T19:03:00.475Z,18.50
2023-03-19T19:05:30.249Z,18.00
2023-03-19T19:07:58.009Z,17.07
2023-03-19T19:10:25.874Z,17.83
2023-03-19T19:12:54.578Z,17.70
2023-03-19T19:15:34.395Z,18.10
2023-03-19T19:18:13.289Z,16.70
2023-03-19T19:20:40.012Z,17.77
2023-03-19T19:23:06.557Z,17.63
2023-03-19T19:25:33.199Z,18.23
2023-03-19T19:28:13.319Z,16.73
2023-03-19T19:30:40.233Z,16.63
2023-03-19T19:33:16.119Z,18.47
2023-03-19T19:35:42.672Z,24.43
2023-03-19T19:38:09.227Z,36.53
2023-03-19T19:40:36.716Z,33.17
2023-03-19T19:43:03.493Z,28.03
2023-03-19T19:45:36.667Z,25.57
2023-03-19T19:48:07.628Z,24.33
2023-03-19T19:50:34.365Z,23.77
2023-03-19T19:53:00.942Z,21.83
2023-03-19T19:55:27.508Z,23.37
2023-03-19T19:57:56.369Z,23.77
2023-03-19T20:00:27.104Z,22.47
2023-03-19T20:02:54.695Z,19.83
2023-03-19T20:05:23.839Z,21.37
2023-03-19T20:07:52.103Z,20.07
2023-03-19T20:10:20.511Z,20.03
2023-03-19T20:12:51.182Z,18.73
2023-03-19T20:15:24.015Z,31.63
2023-03-19T20:17:51.831Z,28.37
2023-03-19T20:20:24.720Z,21.93
2023-03-19T20:22:51.450Z,20.67
2023-03-19T20:25:19.804Z,18.83
2023-03-19T20:27:48.908Z,20.67
2023-03-19T20:30:23.484Z,19.67
2023-03-19T20:32:50.950Z,20.10
2023-03-19T20:35:21.098Z,20.00
2023-03-19T20:37:48.467Z,20.43
2023-03-19T20:40:15.595Z,17.83
2023-03-19T20:42:45.608Z,20.87
2023-03-19T20:45:18.167Z,20.13
2023-03-19T20:47:44.599Z,22.37
2023-03-19T20:50:22.472Z,23.73
2023-03-19T20:52:49.444Z,20.73
2023-03-19T20:55:18.853Z,20.27
2023-03-19T20:57:48.192Z,20.13
2023-03-19T21:00:30.832Z,20.33
2023-03-19T21:02:58.318Z,19.10
2023-03-19T21:05:31.787Z,19.20
2023-03-19T21:07:58.300Z,18.53
2023-03-19T21:10:40.429Z,18.37
2023-03-19T21:13:07.127Z,19.00
2023-03-19T21:15:33.664Z,19.33
2023-03-19T21:18:00.259Z,19.27
2023-03-19T21:20:30.090Z,18.63
2023-03-19T21:23:25.306Z,17.60
2023-03-19T21:25:52.478Z,19.07
2023-03-19T21:28:35.285Z,19.17
2023-03-19T21:31:02.219Z,18.10
2023-03-19T21:33:31.521Z,15.83
2023-03-19T21:35:59.249Z,18.77
2023-03-19T21:38:26.456Z,18.57
2023-03-19T21:41:09.745Z,18.77
2023-03-19T21:43:42.867Z,18.57
2023-03-19T21:46:24.106Z,18.87
2023-03-19T21:48:52.274Z,17.40
2023-03-19T21:51:18.716Z,16.93
2023-03-19T21:53:45.670Z,18.77
2023-03-19T21:56:33.175Z,18.27
2023-03-19T21:59:02.410Z,19.93
2023-03-19T22:01:29.142Z,20.23
2023-03-19T22:03:57.220Z,19.33
2023-03-19T22:06:24.480Z,20.67
2023-03-19T22:08:53.690Z,19.70
2023-03-19T22:11:27.563Z,20.67
2023-03-19T22:13:56.744Z,19.67
2023-03-19T22:16:25.002Z,18.43
2023-03-19T22:18:52.693Z,18.70
2023-03-19T22:21:23.316Z,19.90
2023-03-19T22:23:50.225Z,18.43
2023-03-19T22:26:37.912Z,17.83
2023-03-19T22:29:11.205Z,18.30
2023-03-19T22:31:37.851Z,18.07
2023-03-19T22:34:04.611Z,17.70
2023-03-19T22:36:30.999Z,17.17
2023-03-19T22:38:57.742Z,17.30
2023-03-19T22:41:34.069Z,18.70
2023-03-19T22:44:02.426Z,17.63
2023-03-19T22:46:29.317Z,18.60
2023-03-19T22:48:56.014Z,17.60
2023-03-19T22:51:26.228Z,17.70
2023-03-19T22:53:53.559Z,17.33
2023-03-19T22:56:21.507Z,18.60
2023-03-19T22:58:48.661Z,18.70
2023-03-19T23:01:29.965Z,18.67
2023-03-19T23:03:57.076Z,19.00
2023-03-19T23:06:30.716Z,19.53
2023-03-19T23:09:24.443Z,20.63
2023-03-19T23:11:52.576Z,20.63
2023-03-19T23:14:35.497Z,20.40
2023-03-19T23:17:27.994Z,21.57
2023-03-19T23:19:54.441Z,23.07
2023-03-19T23:22:20.875Z,22.37
2023-03-19T23:24:47.353Z,22.80
2023-03-19T23:27:26.038Z,23.50
2023-03-19T23:29:53.257Z,23.23
2023-03-19T23:32:19.744Z,23.83
2023-03-19T23:34:58.033Z,22.63
2023-03-19T23:37:25.990Z,23.77
2023-03-19T23:39:53.447Z,25.73
2023-03-19T23:42:27.758Z,24.40
2023-03-19T23:44:57.782Z,26.03
2023-03-19T23:47:24.301Z,26.90
2023-03-19T23:49:51.054Z,26.80
2023-03-19T23:52:17.639Z,25.97
2023-03-19T23:54:44.267Z,25.83
2023-03-19T23:57:15.538Z,26.17
2023-03-19T23:59:45.458Z,24.87
